Time;durP1;ratioP1;P1;durP2;ratioP2;P2;SDS_P1;SDS_P2;PMS_P1;PMS_P2;Temp;Humidity;BMP_temperature;BMP_pressure;BME280_temperature;BME280_humidity;BME280_pressure;Samples;Min_cycle;Max_cycle;Signal;HPM_P1;HPM_P2
2024/01/05 00:00:59;;;;;;;45.30;21.60;;;;;;;;;;4986323;28;20193;-78
2024/01/05 00:03:24;;;;;;;46.57;21.77;;;;;;;;;;5014227;28;20296;-77
2024/01/05 00:05:50;;;;;;;42.07;21.47;;;;;;;;;;4998279;28;20439;-77
2024/01/05 00:08:16;;;;;;;46.43;20.80;;;;;;;;;;5013511;28;20618;-77
2024/01/05 00:10:41;;;;;;;40.40;20.43;;;;;;;;;;5032513;28;20190;-77
2024/01/05 00:13:06;;;;;;;44.70;20.00;;;;;;;;;;5012840;28;20248;-77
2024/01/05 00:15:32;;;;;;;42.63;20.23;;;;;;;;;;4994771;28;20190;-77
2024/01/05 00:17:57;;;;;;;38.00;18.80;;;;;;;;;;5029031;28;20213;-78
2024/01/05 00:20:23;;;;;;;43.53;20.53;;;;;;;;;;5033941;28;20329;-78
2024/01/05 00:22:49;;;;;;;36.43;20.10;;;;;;;;;;4995206;28;20733;-78
2024/01/05 00:25:16;;;;;;;35.40;19.90;;;;;;;;;;5007862;28;20191;-78
2024/01/05 00:27:42;;;;;;;43.60;21.30;;;;;;;;;;5014853;28;20202;-79
2024/01/05 00:30:08;;;;;;;39.40;21.00;;;;;;;;;;5020747;28;20580;-79
2024/01/05 00:32:33;;;;;;;39.97;19.47;;;;;;;;;;5019339;28;20214;-78
2024/01/05 00:34:59;;;;;;;38.03;19.80;;;;;;;;;;5003048;28;20193;-79
2024/01/05 00:37:24;;;;;;;38.40;20.53;;;;;;;;;;5004777;28;20751;-78
2024/01/05 00:39:50;;;;;;;38.70;20.27;;;;;;;;;;5018508;28;20186;-78
2024/01/05 00:42:15;;;;;;;37.27;19.13;;;;;;;;;;5037200;28;20182;-78
2024/01/05 00:44:41;;;;;;;39.77;19.73;;;;;;;;;;5018128;28;20206;-78
2024/01/05 00:47:07;;;;;;;37.87;18.57;;;;;;;;;;5022797;28;20225;-78
2024/01/05 00:49:32;;;;;;;36.70;19.93;;;;;;;;;;5020629;28;20186;-79
2024/01/05 00:51:58;;;;;;;35.13;19.90;;;;;;;;;;5040398;28;20194;-79
2024/01/05 00:54:25;;;;;;;37.83;20.23;;;;;;;;;;5006929;28;20189;-79
2024/01/05 00:56:50;;;;;;;36.87;20.07;;;;;;;;;;5005114;28;20305;-78
2024/01/05 00:59:19;;;;;;;38.43;19.80;;;;;;;;;;5028844;28;20240;-78
2024/01/05 01:01:45;;;;;;;42.10;20.37;;;;;;;;;;5011382;28;20214;-78
2024/01/05 01:04:11;;;;;;;38.13;19.93;;;;;;;;;;5016150;28;20178;-79
2024/01/05 01:06:36;;;;;;;39.60;21.93;;;;;;;;;;5009662;28;20190;-79
2024/01/05 01:09:02;;;;;;;37.90;20.27;;;;;;;;;;5024571;28;20193;-77
2024/01/05 01:11:28;;;;;;;40.40;20.13;;;;;;;;;;5026561;28;20188;-77
2024/01/05 01:13:53;;;;;;;37.90;21.10;;;;;;;;;;4996739;28;20284;-77
2024/01/05 01:16:19;;;;;;;40.77;20.23;;;;;;;;;;5028575;28;20439;-77
2024/01/05 01:18:44;;;;;;;38.97;21.13;;;;;;;;;;5009719;28;20202;-77
2024/01/05 01:21:09;;;;;;;41.00;21.07;;;;;;;;;;5006662;28;20514;-77
2024/01/05 01:23:35;;;;;;;42.90;21.83;;;;;;;;;;5027763;28;20303;-77
2024/01/05 01:26:00;;;;;;;39.30;20.97;;;;;;;;;;5028451;28;20193;-77
2024/01/05 01:28:26;;;;;;;39.60;21.50;;;;;;;;;;5013010;28;20217;-77
2024/01/05 01:30:52;;;;;;;40.50;22.27;;;;;;;;;;5020839;28;20195;-76
2024/01/05 01:33:17;;;;;;;42.67;22.90;;;;;;;;;;5002608;28;20649;-77
2024/01/05 01:35:42;;;;;;;46.70;22.33;;;;;;;;;;5012555;28;20669;-76
2024/01/05 01:38:08;;;;;;;42.90;22.73;;;;;;;;;;5026794;28;20220;-77
2024/01/05 01:40:33;;;;;;;39.77;22.50;;;;;;;;;;5010948;28;20269;-77
2024/01/05 01:42:59;;;;;;;44.30;23.57;;;;;;;;;;5032508;28;20240;-77
2024/01/05 01:45:24;;;;;;;42.80;22.93;;;;;;;;;;5019006;28;20191;-78
2024/01/05 01:47:51;;;;;;;42.13;24.10;;;;;;;;;;5004913;28;20196;-77
2024/01/05 01:50:17;;;;;;;40.50;22.30;;;;;;;;;;5012635;28;20189;-78
2024/01/05 01:52:48;;;;;;;42.43;22.63;;;;;;;;;;5014454;28;20437;-78
2024/01/05 01:55:16;;;;;;;42.30;22.47;;;;;;;;;;5012597;28;20207;-77
2024/01/05 01:57:42;;;;;;;43.90;22.63;;;;;;;;;;5024801;28;20612;-77
2024/01/05 02:00:09;;;;;;;46.07;23.93;;;;;;;;;;4997652;28;20269;-77
2024/01/05 02:02:36;;;;;;;41.90;24.00;;;;;;;;;;5020654;28;20222;-76
2024/01/05 02:05:02;;;;;;;40.70;22.50;;;;;;;;;;5025786;28;20213;-76
2024/01/05 02:07:28;;;;;;;40.47;22.33;;;;;;;;;;5012554;28;20186;-77
2024/01/05 02:09:54;;;;;;;40.47;22.97;;;;;;;;;;5025471;28;20209;-77
2024/01/05 02:12:20;;;;;;;40.90;24.50;;;;;;;;;;5029384;28;20206;-77
2024/01/05 02:14:45;;;;;;;43.43;23.57;;;;;;;;;;5029942;28;20186;-78
2024/01/05 02:17:27;;;;;;;44.53;23.27;;;;;;;;;;5012366;28;20568;-77
2024/01/05 02:19:53;;;;;;;41.80;23.57;;;;;;;;;;5024011;28;20214;-77
2024/01/05 02:22:21;;;;;;;40.00;24.27;;;;;;;;;;5028173;28;20236;-77
2024/01/05 02:24:46;;;;;;;44.30;24.42;;;;;;;;;;5007029;28;20306;-77
2024/01/05 02:27:12;;;;;;;42.53;23.97;;;;;;;;;;5010621;28;20318;-76
2024/01/05 02:29:37;;;;;;;41.60;24.90;;;;;;;;;;5022657;28;20209;-77
2024/01/05 02:32:03;;;;;;;36.60;22.43;;;;;;;;;;5004547;28;20198;-76
2024/01/05 02:34:28;;;;;;;38.38;22.35;;;;;;;;;;4994171;28;20245;-76
2024/01/05 02:36:53;;;;;;;38.27;22.47;;;;;;;;;;5038106;28;20470;-76
2024/01/05 02:39:19;;;;;;;39.22;22.52;;;;;;;;;;5025463;28;20461;-76
2024/01/05 02:41:44;;;;;;;40.95;22.92;;;;;;;;;;5028277;28;20248;-76
2024/01/05 02:44:10;;;;;;;39.33;23.57;;;;;;;;;;5011046;28;20277;-76
2024/01/05 02:46:37;;;;;;;41.50;23.42;;;;;;;;;;5010751;28;20289;-76
2024/01/05 02:49:03;;;;;;;37.43;23.13;;;;;;;;;;5024643;28;20297;-76
2024/01/05 02:51:28;;;;;;;38.28;24.05;;;;;;;;;;4994409;28;20208;-76
2024/01/05 02:53:54;;;;;;;39.30;23.58;;;;;;;;;;5011342;28;20375;-76
2024/01/05 02:56:23;;;;;;;44.03;24.67;;;;;;;;;;5007161;28;20194;-76
2024/01/05 02:58:50;;;;;;;37.70;23.57;;;;;;;;;;4999350;28;20193;-76
2024/01/05 03:01:16;;;;;;;44.17;25.00;;;;;;;;;;5027420;28;20591;-76
2024/01/05 03:03:49;;;;;;;47.77;24.83;;;;;;;;;;5027378;28;20200;-76
2024/01/05 03:06:15;;;;;;;39.00;24.03;;;;;;;;;;5009972;28;20218;-76
2024/01/05 03:08:41;;;;;;;44.73;25.43;;;;;;;;;;5005222;28;20670;-76
2024/01/05 03:11:06;;;;;;;37.77;22.70;;;;;;;;;;5009350;28;20197;-76
2024/01/05 03:13:32;;;;;;;44.77;25.53;;;;;;;;;;5027304;28;20276;-75
2024/01/05 03:15:58;;;;;;;46.30;24.37;;;;;;;;;;5009127;28;20669;-76
2024/01/05 03:18:23;;;;;;;46.97;25.50;;;;;;;;;;5024987;28;20214;-76
2024/01/05 03:20:49;;;;;;;44.80;25.17;;;;;;;;;;5006698;28;20539;-76
2024/01/05 03:23:15;;;;;;;49.55;25.25;;;;;;;;;;5008709;28;20198;-76
2024/01/05 03:25:41;;;;;;;45.35;24.70;;;;;;;;;;5011219;28;20199;-75
2024/01/05 03:28:07;;;;;;;48.33;24.17;;;;;;;;;;5010184;28;20202;-75
2024/01/05 03:30:32;;;;;;;49.05;26.17;;;;;;;;;;5007822;28;20201;-75
2024/01/05 03:32:58;;;;;;;48.90;26.42;;;;;;;;;;5016241;28;20229;-75
2024/01/05 03:35:23;;;;;;;46.28;25.33;;;;;;;;;;5000323;28;20198;-76
2024/01/05 03:37:49;;;;;;;46.37;24.73;;;;;;;;;;5008888;28;20201;-76
2024/01/05 03:40:15;;;;;;;46.87;26.03;;;;;;;;;;5001183;28;20273;-76
2024/01/05 03:42:41;;;;;;;46.60;26.02;;;;;;;;;;5007279;28;20187;-76
2024/01/05 03:45:07;;;;;;;48.60;26.23;;;;;;;;;;5024495;28;20721;-76
2024/01/05 03:47:32;;;;;;;46.58;24.90;;;;;;;;;;5009925;28;20717;-76
2024/01/05 03:49:58;;;;;;;40.58;24.75;;;;;;;;;;5004857;28;20195;-76
2024/01/05 03:52:23;;;;;;;51.38;26.60;;;;;;;;;;4992677;28;20207;-76
2024/01/05 03:54:49;;;;;;;50.40;26.25;;;;;;;;;;5016675;28;20576;-76
2024/01/05 03:57:14;;;;;;;46.60;25.17;;;;;;;;;;5004535;28;20282;-76
2024/01/05 03:59:42;;;;;;;42.20;25.52;;;;;;;;;;5008474;28;20265;-76
2024/01/05 04:02:08;;;;;;;47.53;26.55;;;;;;;;;;5009612;28;20217;-76
2024/01/05 04:04:33;;;;;;;45.92;25.48;;;;;;;;;;5025028;28;20199;-76
2024/01/05 04:06:59;;;;;;;43.33;23.67;;;;;;;;;;5010228;28;20530;-76
2024/01/05 04:09:24;;;;;;;46.50;23.83;;;;;;;;;;5011241;28;20202;-76
2024/01/05 04:11:51;;;;;;;46.75;24.38;;;;;;;;;;5008079;28;20187;-76
2024/01/05 04:14:16;;;;;;;50.63;24.73;;;;;;;;;;5025640;28;20288;-76
2024/01/05 04:16:42;;;;;;;47.58;23.65;;;;;;;;;;5010901;28;20203;-76
2024/01/05 04:19:08;;;;;;;46.22;24.30;;;;;;;;;;5009498;28;20207;-76
2024/01/05 04:21:33;;;;;;;41.78;22.98;;;;;;;;;;5024548;28;20585;-76
2024/01/05 04:23:59;;;;;;;41.17;23.13;;;;;;;;;;5011298;28;20190;-76
2024/01/05 04:26:24;;;;;;;42.67;23.67;;;;;;;;;;5009674;28;20274;-76
2024/01/05 04:28:50;;;;;;;39.22;21.83;;;;;;;;;;5008387;28;20300;-76
2024/01/05 04:31:15;;;;;;;45.80;22.10;;;;;;;;;;4991069;28;20646;-76
2024/01/05 04:33:41;;;;;;;49.13;22.20;;;;;;;;;;5003832;28;20447;-76
2024/01/05 04:36:07;;;;;;;45.30;22.37;;;;;;;;;;5017320;28;20191;-76
2024/01/05 04:38:34;;;;;;;47.53;21.52;;;;;;;;;;5009843;28;20206;-76
2024/01/05 04:41:00;;;;;;;44.37;21.53;;;;;;;;;;5008505;28;20195;-76
2024/01/05 04:43:26;;;;;;;46.45;21.15;;;;;;;;;;5000393;28;20206;-76
2024/01/05 04:45:52;;;;;;;40.20;20.95;;;;;;;;;;5015617;28;20290;-76
2024/01/05 04:48:18;;;;;;;48.10;22.63;;;;;;;;;;5003425;28;20195;-76
2024/01/05 04:50:44;;;;;;;49.15;21.35;;;;;;;;;;5006332;28;20193;-76
2024/01/05 04:53:09;;;;;;;47.08;21.48;;;;;;;;;;5001523;28;20637;-76
2024/01/05 04:55:35;;;;;;;37.22;18.30;;;;;;;;;;4998841;28;20192;-76
2024/01/05 04:58:00;;;;;;;40.17;17.58;;;;;;;;;;5011061;28;20238;-76
2024/01/05 05:00:26;;;;;;;42.33;16.60;;;;;;;;;;4992042;28;20237;-76
2024/01/05 05:02:52;;;;;;;41.90;16.03;;;;;;;;;;5007576;28;20202;-76
2024/01/05 05:05:17;;;;;;;38.97;15.57;;;;;;;;;;5004584;28;20195;-76
2024/01/05 05:07:43;;;;;;;39.15;14.73;;;;;;;;;;4999282;28;20218;-76
2024/01/05 05:10:08;;;;;;;38.95;14.65;;;;;;;;;;5010438;28;20187;-76
2024/01/05 05:12:34;;;;;;;37.15;15.85;;;;;;;;;;5007337;28;20219;-76
2024/01/05 05:14:59;;;;;;;38.23;14.57;;;;;;;;;;4991969;28;20187;-76
2024/01/05 05:17:25;;;;;;;37.63;13.83;;;;;;;;;;5021337;28;20191;-76
2024/01/05 05:19:54;;;;;;;27.83;13.57;;;;;;;;;;5008312;28;20631;-75
2024/01/05 05:22:20;;;;;;;35.30;14.85;;;;;;;;;;5007213;28;20243;-75
2024/01/05 05:24:45;;;;;;;39.03;13.40;;;;;;;;;;5004864;28;20311;-76
2024/01/05 05:27:11;;;;;;;38.70;14.17;;;;;;;;;;5025050;28;20190;-75
2024/01/05 05:29:36;;;;;;;38.87;13.27;;;;;;;;;;5008556;28;20187;-76
2024/01/05 05:32:02;;;;;;;37.05;12.95;;;;;;;;;;4998495;28;20187;-76
2024/01/05 05:34:27;;;;;;;31.30;12.82;;;;;;;;;;5008293;28;20211;-76
2024/01/05 05:36:53;;;;;;;31.80;12.60;;;;;;;;;;4992064;28;20708;-76
2024/01/05 05:39:18;;;;;;;27.25;12.57;;;;;;;;;;4991314;28;20736;-75
2024/01/05 05:41:44;;;;;;;30.52;12.07;;;;;;;;;;4982771;28;20191;-75
2024/01/05 05:44:09;;;;;;;39.17;12.02;;;;;;;;;;4996833;28;20253;-75
2024/01/05 05:46:35;;;;;;;36.38;13.60;;;;;;;;;;4994541;28;20226;-76
2024/01/05 05:49:00;;;;;;;30.53;11.83;;;;;;;;;;5009662;28;20229;-76
2024/01/05 05:51:26;;;;;;;30.48;12.00;;;;;;;;;;5008812;28;20189;-76
2024/01/05 05:53:51;;;;;;;31.27;11.38;;;;;;;;;;5007128;28;20310;-76
2024/01/05 05:56:18;;;;;;;35.47;11.20;;;;;;;;;;5001850;28;20211;-75
2024/01/05 05:58:44;;;;;;;31.40;10.05;;;;;;;;;;5007985;28;20242;-76
2024/01/05 06:01:12;;;;;;;35.93;11.17;;;;;;;;;;5007027;28;20513;-75
2024/01/05 06:03:38;;;;;;;31.92;10.27;;;;;;;;;;4998264;28;20187;-76
2024/01/05 06:06:05;;;;;;;31.80;10.15;;;;;;;;;;5006359;28;20209;-75
2024/01/05 06:08:30;;;;;;;25.88;9.48;;;;;;;;;;5000548;28;20186;-75
2024/01/05 06:10:56;;;;;;;30.60;10.07;;;;;;;;;;5007301;28;20252;-75
2024/01/05 06:13:21;;;;;;;27.08;9.38;;;;;;;;;;5007969;28;20418;-76
2024/01/05 06:15:47;;;;;;;34.65;10.05;;;;;;;;;;5007298;28;20264;-75
2024/01/05 06:18:12;;;;;;;27.13;8.87;;;;;;;;;;5008479;28;20685;-76
2024/01/05 06:20:38;;;;;;;22.05;8.70;;;;;;;;;;5006534;28;20242;-75
2024/01/05 06:23:03;;;;;;;22.67;8.52;;;;;;;;;;5006589;28;20598;-75
2024/01/05 06:25:28;;;;;;;27.08;7.88;;;;;;;;;;5007581;28;20203;-75
2024/01/05 06:27:54;;;;;;;22.98;7.57;;;;;;;;;;5008855;28;20606;-75
2024/01/05 06:30:19;;;;;;;26.42;7.55;;;;;;;;;;4996592;28;20615;-76
2024/01/05 06:32:45;;;;;;;19.55;6.60;;;;;;;;;;5023615;28;20211;-76
2024/01/05 06:35:12;;;;;;;26.27;7.20;;;;;;;;;;5023154;28;20206;-76
2024/01/05 06:37:37;;;;;;;30.07;6.87;;;;;;;;;;4995113;28;20646;-76
2024/01/05 06:40:03;;;;;;;18.43;6.10;;;;;;;;;;4999574;28;20197;-75
2024/01/05 06:42:28;;;;;;;24.63;6.57;;;;;;;;;;5000727;28;20281;-75
2024/01/05 06:44:54;;;;;;;22.17;5.50;;;;;;;;;;4995688;28;20268;-76
2024/01/05 06:47:19;;;;;;;18.97;5.87;;;;;;;;;;4995823;28;20184;-76
2024/01/05 06:49:44;;;;;;;17.00;5.83;;;;;;;;;;5008560;28;20726;-76
2024/01/05 06:52:10;;;;;;;28.55;5.97;;;;;;;;;;5016052;28;20182;-75
2024/01/05 06:54:35;;;;;;;18.48;4.85;;;;;;;;;;4990555;28;20188;-76
2024/01/05 06:57:02;;;;;;;21.65;5.07;;;;;;;;;;4998752;28;20354;-76
2024/01/05 06:59:30;;;;;;;23.40;5.50;;;;;;;;;;4992167;28;20187;-75
2024/01/05 07:01:56;;;;;;;20.17;4.37;;;;;;;;;;4979321;28;20627;-75
2024/01/05 07:04:22;;;;;;;16.87;5.03;;;;;;;;;;5003038;28;20182;-76
2024/01/05 07:06:47;;;;;;;20.17;4.87;;;;;;;;;;4987500;28;20690;-75
2024/01/05 07:09:13;;;;;;;20.30;4.50;;;;;;;;;;5016595;28;20198;-76
2024/01/05 07:11:39;;;;;;;19.90;4.53;;;;;;;;;;5006180;28;20237;-77
2024/01/05 07:14:05;;;;;;;20.47;4.43;;;;;;;;;;5008372;28;20238;-75
2024/01/05 07:16:30;;;;;;;22.07;4.53;;;;;;;;;;5008701;28;20195;-76
2024/01/05 07:18:56;;;;;;;14.07;3.60;;;;;;;;;;5005981;28;20199;-76
2024/01/05 07:21:21;;;;;;;19.43;5.97;;;;;;;;;;4999828;28;20259;-76
2024/01/05 07:23:47;;;;;;;18.35;4.15;;;;;;;;;;4987193;28;20206;-75
2024/01/05 07:26:13;;;;;;;19.13;3.93;;;;;;;;;;4988985;28;20206;-76
2024/01/05 07:28:38;;;;;;;15.57;3.70;;;;;;;;;;4988175;28;20686;-75
2024/01/05 07:31:08;;;;;;;24.73;3.93;;;;;;;;;;4991104;28;20195;-76
2024/01/05 07:33:33;;;;;;;16.53;4.07;;;;;;;;;;4989173;28;20204;-76
2024/01/05 07:36:04;;;;;;;18.83;3.97;;;;;;;;;;4987832;28;20341;-75
2024/01/05 07:38:30;;;;;;;16.47;3.73;;;;;;;;;;4984233;28;20245;-76
2024/01/05 07:40:57;;;;;;;16.97;4.00;;;;;;;;;;5002916;28;20273;-76
2024/01/05 07:43:22;;;;;;;13.67;3.57;;;;;;;;;;4989206;28;20207;-76
2024/01/05 07:45:48;;;;;;;12.33;3.33;;;;;;;;;;4987975;28;20624;-76
2024/01/05 07:48:13;;;;;;;16.85;3.55;;;;;;;;;;4988148;28;20249;-76
2024/01/05 07:50:39;;;;;;;18.50;3.63;;;;;;;;;;5002582;28;20191;-76
2024/01/05 07:53:04;;;;;;;19.45;3.25;;;;;;;;;;4975803;28;20211;-76
2024/01/05 07:55:29;;;;;;;20.63;3.70;;;;;;;;;;4988468;28;20179;-76
2024/01/05 07:57:55;;;;;;;16.63;3.22;;;;;;;;;;4976306;28;20194;-75
2024/01/05 08:00:21;;;;;;;10.75;2.67;;;;;;;;;;5002379;28;20548;-75
2024/01/05 08:02:49;;;;;;;14.93;3.75;;;;;;;;;;4996251;28;20243;-75
2024/01/05 08:05:14;;;;;;;12.05;2.78;;;;;;;;;;4982553;28;20272;-75
2024/01/05 08:07:41;;;;;;;13.18;3.00;;;;;;;;;;4979873;28;20266;-75
2024/01/05 08:10:07;;;;;;;12.02;2.80;;;;;;;;;;4974942;28;20203;-75
2024/01/05 08:12:32;;;;;;;12.45;3.08;;;;;;;;;;4993972;28;20250;-76
2024/01/05 08:14:58;;;;;;;17.77;3.67;;;;;;;;;;4989535;28;20188;-75
2024/01/05 08:17:23;;;;;;;14.88;4.68;;;;;;;;;;4988221;28;20643;-75
2024/01/05 08:19:49;;;;;;;11.73;2.60;;;;;;;;;;5000435;28;20294;-75
2024/01/05 08:22:14;;;;;;;10.30;2.33;;;;;;;;;;5024321;28;20337;-75
2024/01/05 08:24:39;;;;;;;12.40;2.30;;;;;;;;;;5022106;28;20245;-76
2024/01/05 08:27:05;;;;;;;9.93;2.40;;;;;;;;;;5026098;28;20201;-75
2024/01/05 08:29:30;;;;;;;12.60;2.33;;;;;;;;;;5038824;28;20272;-75
2024/01/05 08:31:58;;;;;;;9.95;2.22;;;;;;;;;;5019712;28;20253;-75
2024/01/05 08:34:24;;;;;;;9.70;3.17;;;;;;;;;;5008959;28;20207;-76
2024/01/05 08:36:49;;;;;;;14.95;2.70;;;;;;;;;;5019649;28;20606;-76
2024/01/05 08:39:15;;;;;;;7.18;2.03;;;;;;;;;;5017024;28;20657;-76
2024/01/05 08:41:42;;;;;;;11.02;2.80;;;;;;;;;;5013176;28;20174;-76
2024/01/05 08:44:07;;;;;;;7.05;2.22;;;;;;;;;;4998850;28;20195;-76
2024/01/05 08:46:33;;;;;;;13.77;2.25;;;;;;;;;;5024756;28;20189;-76
2024/01/05 08:48:58;;;;;;;9.45;1.98;;;;;;;;;;5000306;28;20611;-76
2024/01/05 08:51:24;;;;;;;10.85;1.85;;;;;;;;;;5009393;28;20194;-76
2024/01/05 08:53:49;;;;;;;7.90;1.90;;;;;;;;;;5012949;28;20312;-76
2024/01/05 08:56:14;;;;;;;10.30;1.90;;;;;;;;;;5030337;28;20248;-76
2024/01/05 08:58:40;;;;;;;9.95;1.80;;;;;;;;;;5031810;28;20205;-79
2024/01/05 09:01:05;;;;;;;7.68;1.73;;;;;;;;;;5036310;28;20183;-78
2024/01/05 09:03:31;;;;;;;6.53;2.03;;;;;;;;;;5016042;28;20252;-79
2024/01/05 09:05:57;;;;;;;8.57;1.67;;;;;;;;;;5037800;28;20292;-79
2024/01/05 09:08:22;;;;;;;8.48;1.42;;;;;;;;;;5020236;28;20190;-79
2024/01/05 09:10:48;;;;;;;5.63;1.63;;;;;;;;;;5039568;28;20197;-78
2024/01/05 09:13:13;;;;;;;4.32;1.67;;;;;;;;;;5039893;28;20202;-77
2024/01/05 09:15:39;;;;;;;4.63;1.65;;;;;;;;;;5034192;28;20587;-78
2024/01/05 09:18:05;;;;;;;8.20;1.60;;;;;;;;;;5031789;28;20210;-78
2024/01/05 09:20:30;;;;;;;6.78;1.40;;;;;;;;;;4991793;28;20246;-78
2024/01/05 09:22:56;;;;;;;3.60;1.20;;;;;;;;;;5011649;28;20191;-78
2024/01/05 09:25:22;;;;;;;5.05;0.95;;;;;;;;;;4993786;28;20354;-78
2024/01/05 09:27:48;;;;;;;6.85;1.00;;;;;;;;;;4985804;28;20194;-78
2024/01/05 09:30:13;;;;;;;5.20;1.17;;;;;;;;;;4993451;28;20187;-78
2024/01/05 09:32:39;;;;;;;2.72;0.90;;;;;;;;;;5009828;28;20214;-78
2024/01/05 09:35:05;;;;;;;4.00;0.85;;;;;;;;;;4991121;28;20189;-78
2024/01/05 09:37:30;;;;;;;3.85;0.70;;;;;;;;;;5001967;28;20192;-78
2024/01/05 09:39:56;;;;;;;2.25;0.60;;;;;;;;;;4996427;28;20531;-79
2024/01/05 09:42:22;;;;;;;4.55;0.70;;;;;;;;;;5007408;28;20278;-78
2024/01/05 09:44:48;;;;;;;2.58;0.50;;;;;;;;;;4977402;28;20179;-78
2024/01/05 09:47:18;;;;;;;3.72;0.60;;;;;;;;;;4991485;28;20195;-77
2024/01/05 09:49:44;;;;;;;1.35;0.40;;;;;;;;;;4994352;28;20565;-77
2024/01/05 09:52:14;;;;;;;1.40;0.40;;;;;;;;;;4993480;28;20187;-78
2024/01/05 09:54:40;;;;;;;2.03;0.30;;;;;;;;;;4994666;28;20278;-78
2024/01/05 09:57:09;;;;;;;1.00;0.40;;;;;;;;;;4971416;28;20234;-77
2024/01/05 09:59:36;;;;;;;1.67;0.68;;;;;;;;;;5005592;28;20215;-78
2024/01/05 10:02:07;;;;;;;2.22;0.50;;;;;;;;;;4990291;28;20246;-77
2024/01/05 10:04:33;;;;;;;1.65;0.20;;;;;;;;;;5005199;28;20206;-77
2024/01/05 10:07:03;;;;;;;1.10;0.40;;;;;;;;;;4973578;28;20195;-78
2024/01/05 10:09:30;;;;;;;1.45;0.30;;;;;;;;;;4992308;28;20236;-79
2024/01/05 10:11:57;;;;;;;2.00;0.40;;;;;;;;;;5003420;28;20192;-79
2024/01/05 10:14:26;;;;;;;0.80;0.30;;;;;;;;;;4994142;28;20219;-79
2024/01/05 10:17:07;;;;;;;1.13;0.40;;;;;;;;;;4986183;28;20246;-79
2024/01/05 10:19:33;;;;;;;0.93;0.30;;;;;;;;;;4994453;28;20215;-80
2024/01/05 10:22:11;;;;;;;1.80;0.20;;;;;;;;;;5021365;28;20306;-80
2024/01/05 10:24:37;;;;;;;0.98;0.22;;;;;;;;;;5043652;28;20241;-77
2024/01/05 10:27:13;;;;;;;1.42;0.25;;;;;;;;;;5022623;28;20200;-79
2024/01/05 10:29:42;;;;;;;0.93;0.40;;;;;;;;;;5008872;28;20193;-79
2024/01/05 10:32:16;;;;;;;0.77;0.40;;;;;;;;;;5016504;28;20178;-80
2024/01/05 10:34:47;;;;;;;0.70;0.30;;;;;;;;;;5020517;28;20511;-80
2024/01/05 10:37:19;;;;;;;0.57;0.28;;;;;;;;;;5028864;28;20205;-79
2024/01/05 10:39:51;;;;;;;0.83;0.40;;;;;;;;;;5029998;28;20190;-80
2024/01/05 10:42:21;;;;;;;0.90;0.40;;;;;;;;;;5043612;28;20284;-79
2024/01/05 10:44:51;;;;;;;0.30;0.30;;;;;;;;;;5043467;28;20236;-79
2024/01/05 10:47:18;;;;;;;0.40;0.20;;;;;;;;;;5020956;28;20186;-79
2024/01/05 10:49:50;;;;;;;1.03;0.23;;;;;;;;;;5039368;28;20229;-79
2024/01/05 10:52:25;;;;;;;2.50;0.50;;;;;;;;;;5006731;28;20277;-79
2024/01/05 10:54:52;;;;;;;1.05;0.40;;;;;;;;;;5034815;28;20247;-80
2024/01/05 10:57:18;;;;;;;0.30;0.20;;;;;;;;;;5015131;28;20191;-79
2024/01/05 10:59:48;;;;;;;0.95;0.40;;;;;;;;;;5040293;28;20186;-79
2024/01/05 11:02:24;;;;;;;1.13;0.20;;;;;;;;;;5030064;28;20244;-79
2024/01/05 11:05:08;;;;;;;0.68;0.30;;;;;;;;;;5032761;28;20275;-79
2024/01/05 11:07:34;;;;;;;2.08;0.40;;;;;;;;;;5015272;28;20197;-79
2024/01/05 11:10:58;;;;;;;2.05;0.40;;;;;;;;;;5002547;28;20289;-79
2024/01/05 11:13:35;;;;;;;0.88;0.40;;;;;;;;;;4983533;28;20288;-79
2024/01/05 11:16:45;;;;;;;2.13;0.60;;;;;;;;;;5001666;28;20194;-79
2024/01/05 11:19:32;;;;;;;2.13;0.70;;;;;;;;;;4963642;28;20218;-79
2024/01/05 11:22:03;;;;;;;1.23;0.40;;;;;;;;;;5022947;28;20694;-79
2024/01/05 11:24:29;;;;;;;2.00;0.40;;;;;;;;;;5023963;28;20232;-79
2024/01/05 11:26:55;;;;;;;1.58;0.40;;;;;;;;;;5018051;28;20615;-78
2024/01/05 11:29:47;;;;;;;2.05;0.40;;;;;;;;;;5016336;28;20193;-79
2024/01/05 11:32:37;;;;;;;0.30;0.20;;;;;;;;;;5032912;28;20270;-78
2024/01/05 11:35:24;;;;;;;0.30;0.30;;;;;;;;;;5019775;28;20236;-79
2024/01/05 11:37:50;;;;;;;1.27;0.30;;;;;;;;;;5025594;28;20324;-79
2024/01/05 11:40:26;;;;;;;2.83;0.32;;;;;;;;;;5020794;28;20254;-79
2024/01/05 11:42:52;;;;;;;0.73;0.40;;;;;;;;;;5014425;28;20193;-79
2024/01/05 11:45:46;;;;;;;1.23;0.30;;;;;;;;;;5034450;28;20214;-78
2024/01/05 11:48:33;;;;;;;1.02;0.43;;;;;;;;;;5031131;28;20191;-78
2024/01/05 11:51:09;;;;;;;2.17;0.50;;;;;;;;;;5004154;28;20194;-78
2024/01/05 11:53:35;;;;;;;2.35;0.50;;;;;;;;;;5003049;28;20269;-78
2024/01/05 11:56:15;;;;;;;3.40;0.40;;;;;;;;;;5015325;28;20194;-78
2024/01/05 11:58:43;;;;;;;2.30;0.50;;;;;;;;;;5029398;28;20243;-77
2024/01/05 12:01:10;;;;;;;1.85;0.43;;;;;;;;;;5017668;28;20677;-78
2024/01/05 12:03:38;;;;;;;1.92;0.50;;;;;;;;;;5015220;28;20588;-78
2024/01/05 12:06:04;;;;;;;1.42;0.45;;;;;;;;;;4996329;28;20657;-77
2024/01/05 12:08:30;;;;;;;0.60;0.60;;;;;;;;;;5010907;28;20643;-79
2024/01/05 12:11:02;;;;;;;0.93;0.60;;;;;;;;;;5028902;28;20190;-79
2024/01/05 12:13:29;;;;;;;2.67;1.10;;;;;;;;;;5038477;28;20598;-79
2024/01/05 12:15:56;;;;;;;1.90;0.85;;;;;;;;;;5020806;28;20189;-79
2024/01/05 12:18:30;;;;;;;5.20;0.80;;;;;;;;;;5007798;28;20292;-77
2024/01/05 12:21:05;;;;;;;0.98;0.88;;;;;;;;;;5033759;28;20225;-79
2024/01/05 12:23:32;;;;;;;1.95;1.08;;;;;;;;;;5031639;28;20221;-79
2024/01/05 12:26:06;;;;;;;1.95;1.00;;;;;;;;;;5015647;28;20191;-80
2024/01/05 12:28:35;;;;;;;1.80;0.77;;;;;;;;;;5016625;28;20189;-79
2024/01/05 12:31:02;;;;;;;3.20;0.90;;;;;;;;;;5016159;28;20186;-77
2024/01/05 12:33:29;;;;;;;1.70;1.10;;;;;;;;;;4984786;28;20214;-78
2024/01/05 12:35:55;;;;;;;2.13;0.82;;;;;;;;;;5026428;28;20256;-78
2024/01/05 12:38:44;;;;;;;2.58;1.30;;;;;;;;;;5020420;28;20269;-79
2024/01/05 12:41:14;;;;;;;1.63;1.30;;;;;;;;;;4976120;28;20203;-79
2024/01/05 12:43:44;;;;;;;1.73;1.42;;;;;;;;;;4986422;28;20303;-79
2024/01/05 12:46:10;;;;;;;1.75;1.20;;;;;;;;;;4966585;28;20199;-78
2024/01/05 12:48:36;;;;;;;3.40;1.40;;;;;;;;;;4973707;28;20199;-78
2024/01/05 12:51:08;;;;;;;1.55;1.08;;;;;;;;;;4953951;28;20326;-78
2024/01/05 12:53:35;;;;;;;4.00;1.27;;;;;;;;;;4979559;28;20262;-76
2024/01/05 12:56:11;;;;;;;3.63;1.60;;;;;;;;;;4972061;28;20216;-78
2024/01/05 12:58:41;;;;;;;3.53;1.50;;;;;;;;;;4954846;28;20195;-78
2024/01/05 13:01:23;;;;;;;3.00;1.60;;;;;;;;;;4978571;28;20223;-78
2024/01/05 13:03:53;;;;;;;3.38;1.70;;;;;;;;;;4985518;28;20199;-77
2024/01/05 13:06:20;;;;;;;2.70;1.75;;;;;;;;;;4972891;28;20214;-78
2024/01/05 13:08:46;;;;;;;3.00;1.60;;;;;;;;;;4967742;28;20382;-77
2024/01/05 13:11:13;;;;;;;2.85;1.75;;;;;;;;;;4986728;28;20226;-77
2024/01/05 13:13:38;;;;;;;3.15;1.70;;;;;;;;;;5007485;28;20203;-78
2024/01/05 13:16:04;;;;;;;3.88;2.08;;;;;;;;;;5019401;28;20198;-77
2024/01/05 13:18:30;;;;;;;6.15;1.95;;;;;;;;;;5010674;28;20670;-78
2024/01/05 13:20:56;;;;;;;4.03;2.50;;;;;;;;;;5031258;28;20237;-77
2024/01/05 13:23:23;;;;;;;3.55;2.75;;;;;;;;;;5013425;28;20269;-77
2024/01/05 13:25:49;;;;;;;4.18;2.13;;;;;;;;;;5030012;28;20190;-78
2024/01/05 13:28:15;;;;;;;3.83;2.33;;;;;;;;;;4991996;28;20185;-77
2024/01/05 13:30:41;;;;;;;5.20;2.50;;;;;;;;;;5016508;28;20194;-78
2024/01/05 13:33:06;;;;;;;5.88;2.20;;;;;;;;;;5032660;28;20950;-77
2024/01/05 13:35:32;;;;;;;4.97;2.38;;;;;;;;;;5034733;28;20198;-77
2024/01/05 13:37:57;;;;;;;6.68;2.53;;;;;;;;;;5032629;28;20266;-77
2024/01/05 13:40:22;;;;;;;3.03;2.15;;;;;;;;;;5013248;28;20216;-77
2024/01/05 13:42:48;;;;;;;5.47;2.70;;;;;;;;;;5039214;28;20587;-77
2024/01/05 13:45:14;;;;;;;5.18;2.95;;;;;;;;;;5013869;28;20584;-78
2024/01/05 13:47:40;;;;;;;5.45;2.85;;;;;;;;;;5022099;28;20229;-78
2024/01/05 13:50:06;;;;;;;3.85;2.80;;;;;;;;;;5013607;28;20277;-77
2024/01/05 13:52:31;;;;;;;4.40;2.72;;;;;;;;;;5009430;28;20190;-77
2024/01/05 13:54:57;;;;;;;4.70;3.42;;;;;;;;;;5022099;28;20214;-77
2024/01/05 13:57:23;;;;;;;5.68;3.10;;;;;;;;;;5027611;28;20190;-77
2024/01/05 13:59:49;;;;;;;4.25;3.03;;;;;;;;;;5010774;28;20285;-78
2024/01/05 14:02:15;;;;;;;7.32;3.33;;;;;;;;;;5019240;28;20190;-78
2024/01/05 14:04:41;;;;;;;6.68;3.50;;;;;;;;;;5004856;28;20187;-77
2024/01/05 14:07:06;;;;;;;7.28;3.83;;;;;;;;;;4997868;28;20548;-77
2024/01/05 14:09:32;;;;;;;4.47;4.07;;;;;;;;;;5005588;28;20186;-76
2024/01/05 14:11:57;;;;;;;7.20;4.07;;;;;;;;;;4992715;28;20205;-78
2024/01/05 14:14:22;;;;;;;5.57;4.10;;;;;;;;;;4992801;28;20210;-77
2024/01/05 14:16:48;;;;;;;9.10;3.47;;;;;;;;;;5009438;28;20190;-77
2024/01/05 14:19:13;;;;;;;7.67;4.30;;;;;;;;;;5011701;28;20591;-78
2024/01/05 14:21:39;;;;;;;9.00;4.47;;;;;;;;;;5008284;28;20314;-77
2024/01/05 14:24:05;;;;;;;8.43;4.60;;;;;;;;;;5009928;28;20708;-77
2024/01/05 14:26:30;;;;;;;7.43;4.30;;;;;;;;;;5007241;28;20187;-79
2024/01/05 14:28:56;;;;;;;6.40;4.23;;;;;;;;;;5007029;28;20395;-79